Time;durP1;ratioP1;P1;durP2;ratioP2;P2;SDS_P1;SDS_P2;PMS_P1;PMS_P2;Temp;Humidity;BMP_temperature;BMP_pressure;BME280_temperature;BME280_humidity;BME280_pressure;Samples;Min_cycle;Max_cycle;Signal;HPM_P1;HPM_P2
2022/12/07 00:02:11;;;;;;;15.83;5.53;;;;;;;-145.18;100.00;46699.47;5012351;28;20064;-73
2022/12/07 00:04:37;;;;;;;12.43;5.63;;;;;;;-145.18;100.00;46703.38;4995266;28;20061;-73
2022/12/07 00:07:02;;;;;;;15.37;5.77;;;;;;;-145.18;100.00;46695.56;4994848;28;20034;-73
2022/12/07 00:09:28;;;;;;;13.07;6.50;;;;;;;-145.18;100.00;46699.47;5013020;28;20030;-73
2022/12/07 00:11:53;;;;;;;13.37;5.83;;;;;;;-145.18;100.00;46703.38;5012521;28;20145;-74
2022/12/07 00:14:19;;;;;;;23.90;7.20;;;;;;;-145.18;100.00;46701.41;4995027;28;20041;-73
2022/12/07 00:16:44;;;;;;;12.10;6.03;;;;;;;-145.18;100.00;46711.19;5012617;28;20814;-73
2022/12/07 00:19:11;;;;;;;15.57;6.03;;;;;;;-145.18;100.00;46693.59;4995128;28;20411;-73
2022/12/07 00:21:37;;;;;;;15.20;5.20;;;;;;;-145.18;100.00;46699.47;5012533;28;20098;-73
2022/12/07 00:24:04;;;;;;;13.43;5.63;;;;;;;-145.18;100.00;46701.41;5012197;28;20902;-73
2022/12/07 00:26:35;;;;;;;14.03;5.20;;;;;;;-145.18;100.00;46703.38;5012477;28;20057;-73
2022/12/07 00:29:04;;;;;;;13.83;5.30;;;;;;;-145.18;100.00;46699.47;5012770;28;20680;-74
2022/12/07 00:31:34;;;;;;;14.37;5.30;;;;;;;-145.18;100.00;46709.22;5012320;28;20270;-73
2022/12/07 00:34:00;;;;;;;12.67;5.97;;;;;;;-145.18;100.00;46697.50;5012402;28;20402;-73
2022/12/07 00:36:26;;;;;;;17.60;6.77;;;;;;;-145.18;100.00;46703.38;5011962;28;21253;-73
2022/12/07 00:38:52;;;;;;;15.47;5.53;;;;;;;-145.18;100.00;46697.50;5012335;28;20359;-73
2022/12/07 00:41:20;;;;;;;11.33;5.57;;;;;;;-145.18;100.00;46709.22;5011974;28;20044;-74
2022/12/07 00:43:47;;;;;;;12.90;5.10;;;;;;;-145.18;100.00;46703.38;4994434;28;20037;-74
2022/12/07 00:46:13;;;;;;;15.47;5.40;;;;;;;-145.18;100.00;46703.38;5097351;22;20325;-73
2022/12/07 00:48:39;;;;;;;17.17;5.93;;;;;;;-145.18;100.00;46701.41;5034051;28;20278;-73
2022/12/07 00:51:05;;;;;;;10.67;4.70;;;;;;;-145.18;100.00;46697.50;5051661;28;20278;-73
2022/12/07 00:53:31;;;;;;;10.23;4.40;;;;;;;-145.18;100.00;46699.47;5051519;28;20430;-73
2022/12/07 00:55:57;;;;;;;16.00;4.43;;;;;;;-145.18;100.00;46691.66;5051591;28;20337;-74
2022/12/07 00:58:23;;;;;;;16.57;3.93;;;;;;;-145.18;100.00;46693.59;5051566;28;20036;-73
2022/12/07 01:00:49;;;;;;;16.53;4.10;;;;;;;-145.18;100.00;46707.28;5051728;28;20029;-73
2022/12/07 01:03:15;;;;;;;14.50;4.07;;;;;;;-145.18;100.00;46695.56;5051198;28;20764;-73
2022/12/07 01:05:53;;;;;;;13.57;4.20;;;;;;;-145.18;100.00;46701.41;5051379;28;20636;-74
2022/12/07 01:08:18;;;;;;;12.23;3.97;;;;;;;-145.18;100.00;46699.47;5050887;28;20270;-74
2022/12/07 01:10:44;;;;;;;10.97;3.87;;;;;;;-145.18;100.00;46697.50;5051553;28;20738;-74
2022/12/07 01:13:09;;;;;;;16.07;4.47;;;;;;;-145.18;100.00;46705.31;5051151;28;20045;-74
2022/12/07 01:15:39;;;;;;;10.10;4.40;;;;;;;-145.18;100.00;46693.59;5051171;28;20108;-74
2022/12/07 01:18:04;;;;;;;14.13;3.97;;;;;;;-145.18;100.00;46691.66;5051157;28;20035;-74
2022/12/07 01:20:29;;;;;;;11.00;3.60;;;;;;;-145.18;100.00;46693.59;5051451;28;20274;-74
2022/12/07 01:22:55;;;;;;;8.93;3.57;;;;;;;-145.18;100.00;46697.50;5050928;28;20072;-74
2022/12/07 01:25:20;;;;;;;14.00;3.40;;;;;;;-145.18;100.00;46695.56;5051334;28;20215;-74
2022/12/07 01:27:45;;;;;;;13.67;3.20;;;;;;;-145.18;100.00;46697.50;5051043;28;20033;-74
2022/12/07 01:30:12;;;;;;;10.47;3.37;;;;;;;-145.18;100.00;46699.47;5050829;28;20044;-74
2022/12/07 01:32:37;;;;;;;13.67;2.90;;;;;;;-145.18;100.00;46697.50;5032540;28;20376;-74
2022/12/07 01:35:03;;;;;;;13.33;3.33;;;;;;;-145.18;100.00;46703.38;5050792;28;20368;-74
2022/12/07 01:37:34;;;;;;;10.33;3.03;;;;;;;-145.18;100.00;46691.66;5050840;28;20024;-73
2022/12/07 01:39:59;;;;;;;9.67;3.00;;;;;;;-145.18;100.00;46703.38;5051016;28;20025;-74
2022/12/07 01:42:24;;;;;;;9.37;4.87;;;;;;;-145.18;100.00;46709.22;5050357;28;20270;-74
2022/12/07 01:45:17;;;;;;;9.70;3.00;;;;;;;-145.18;100.00;46701.41;5050555;28;20051;-74
2022/12/07 01:47:48;;;;;;;14.20;3.70;;;;;;;-145.18;100.00;46697.50;5050609;28;20384;-74
2022/12/07 01:50:14;;;;;;;7.83;2.97;;;;;;;-145.18;100.00;46703.38;5050637;28;20269;-74
2022/12/07 01:52:41;;;;;;;10.83;3.10;;;;;;;-145.18;100.00;46705.31;5050308;28;20297;-74
2022/12/07 01:55:11;;;;;;;8.63;3.40;;;;;;;-145.18;100.00;46703.38;5050749;28;20037;-72
2022/12/07 01:57:40;;;;;;;11.57;3.23;;;;;;;-145.18;100.00;46703.38;5050395;28;20634;-74
2022/12/07 02:00:07;;;;;;;10.47;2.50;;;;;;;-145.18;100.00;46695.56;5050283;28;20349;-74
2022/12/07 02:02:37;;;;;;;9.43;2.23;;;;;;;-145.18;100.00;46701.41;5050485;28;20269;-74
2022/12/07 02:05:05;;;;;;;7.73;2.30;;;;;;;-145.18;100.00;46715.09;5049722;28;20294;-74
2022/12/07 02:07:34;;;;;;;7.97;3.00;;;;;;;-145.18;100.00;46699.47;5032401;28;20630;-74
2022/12/07 02:10:31;;;;;;;9.90;2.53;;;;;;;-145.18;100.00;46703.38;5050292;28;20615;-74
2022/12/07 02:13:21;;;;;;;10.70;2.00;;;;;;;-145.18;100.00;46701.41;4995136;28;20297;-74
2022/12/07 02:15:55;;;;;;;10.07;1.90;;;;;;;-145.18;100.00;46705.31;5049780;28;20281;-74
2022/12/07 02:18:42;;;;;;;16.67;1.73;;;;;;;-145.18;100.00;46711.19;5050008;28;20271;-74
2022/12/07 02:21:37;;;;;;;7.93;1.70;;;;;;;-145.18;100.00;46701.41;5049998;28;20264;-74
2022/12/07 02:24:22;;;;;;;9.53;1.57;;;;;;;-145.18;100.00;46705.31;5050252;28;20614;-74
2022/12/07 02:27:09;;;;;;;8.90;1.53;;;;;;;-145.18;100.00;46715.09;5050076;28;20262;-74
2022/12/07 02:29:43;;;;;;;7.47;1.57;;;;;;;-145.18;100.00;46703.38;5050098;28;20262;-74
2022/12/07 02:32:17;;;;;;;13.53;1.93;;;;;;;-145.18;100.00;46707.28;5049668;28;20290;-74
2022/12/07 02:34:53;;;;;;;12.20;2.57;;;;;;;-145.18;100.00;46707.28;5050238;28;20258;-74
2022/12/07 02:37:29;;;;;;;9.27;1.83;;;;;;;-145.18;100.00;46703.38;5049714;28;20286;-74
2022/12/07 02:40:18;;;;;;;8.43;1.20;;;;;;;-145.18;100.00;46719.00;5050197;28;20307;-74
2022/12/07 02:42:50;;;;;;;9.57;1.67;;;;;;;-145.18;100.00;46703.38;5049859;28;20025;-74
2022/12/07 02:45:20;;;;;;;15.10;4.03;;;;;;;-145.18;100.00;46711.19;5031669;28;20293;-74
2022/12/07 02:47:51;;;;;;;7.70;1.03;;;;;;;-145.18;100.00;46703.38;5032051;28;20258;-74
2022/12/07 02:50:20;;;;;;;10.93;1.27;;;;;;;-145.18;100.00;46699.47;5031988;28;20258;-74
2022/12/07 02:52:46;;;;;;;4.87;0.90;;;;;;;-145.18;100.00;46713.13;5049567;28;20297;-74
2022/12/07 02:55:13;;;;;;;11.40;1.37;;;;;;;-145.18;100.00;46707.28;5049927;28;20266;-74
2022/12/07 02:57:57;;;;;;;8.83;1.20;;;;;;;-145.18;100.00;46701.41;5049796;28;20032;-74
2022/12/07 03:03:12;;;;;;;9.40;1.33;;;;;;;-145.18;100.00;46705.31;5525593;22;20306;-75
2022/12/07 03:05:43;;;;;;;10.17;1.60;;;;;;;-145.18;100.00;46717.03;5030387;28;20277;-75
2022/12/07 03:08:17;;;;;;;9.07;1.20;;;;;;;-145.18;100.00;46709.22;5050108;28;20266;-74
2022/12/07 03:11:06;;;;;;;8.50;1.37;;;;;;;-145.18;100.00;46711.19;5049558;28;20269;-75
2022/12/07 03:13:59;;;;;;;8.60;0.90;;;;;;;-145.18;100.00;46715.09;5049507;28;20290;-75
2022/12/07 03:16:33;;;;;;;10.07;1.20;;;;;;;-145.18;100.00;46719.00;5050701;28;20270;-75
2022/12/07 03:19:03;;;;;;;7.10;1.87;;;;;;;-145.18;100.00;46717.03;5053844;28;20277;-74
2022/12/07 03:21:36;;;;;;;14.17;1.37;;;;;;;-145.18;100.00;46709.22;5053600;28;20273;-75
2022/12/07 03:24:09;;;;;;;10.77;1.00;;;;;;;-145.18;100.00;46717.03;5053468;28;20274;-74
2022/12/07 03:26:38;;;;;;;6.30;0.80;;;;;;;-145.18;100.00;46717.03;5053396;28;20269;-75
2022/12/07 03:29:11;;;;;;;9.93;1.30;;;;;;;-145.18;100.00;46720.94;5053174;28;20277;-74
2022/12/07 03:31:41;;;;;;;10.50;1.27;;;;;;;-145.18;100.00;46715.09;5053410;28;20301;-75
2022/12/07 03:34:15;;;;;;;3.47;0.70;;;;;;;-145.18;100.00;46720.94;5053216;28;20340;-75
2022/12/07 03:36:55;;;;;;;13.70;1.10;;;;;;;-145.18;100.00;46717.03;5035191;28;20844;-75
2022/12/07 03:39:49;;;;;;;4.00;1.00;;;;;;;-145.18;100.00;46720.94;5037560;28;20286;-75
2022/12/07 03:42:15;;;;;;;6.83;1.20;;;;;;;-145.18;100.00;46720.94;5033527;28;20812;-75
2022/12/07 03:44:42;;;;;;;9.40;1.47;;;;;;;-145.18;100.00;46717.03;5032834;28;20275;-75
2022/12/07 03:47:26;;;;;;;9.53;1.13;;;;;;;-145.18;100.00;46722.91;5033638;28;20281;-75
2022/12/07 03:49:58;;;;;;;6.17;1.53;;;;;;;-145.18;100.00;46719.00;5032914;28;20281;-75
2022/12/07 03:52:23;;;;;;;8.20;1.20;;;;;;;-145.18;100.00;46719.00;5032724;28;20282;-75
2022/12/07 03:55:00;;;;;;;5.40;1.47;;;;;;;-145.18;100.00;46711.19;5032651;28;20274;-74
2022/12/07 03:57:29;;;;;;;17.73;2.70;;;;;;;-145.18;100.00;46717.03;5033031;28;20379;-74
2022/12/07 03:59:56;;;;;;;12.03;1.53;;;;;;;-145.18;100.00;46715.09;5033056;28;20270;-74
2022/12/07 04:02:23;;;;;;;13.40;1.63;;;;;;;-145.18;100.00;46715.09;5032723;28;20306;-75
2022/12/07 04:04:49;;;;;;;7.53;1.30;;;;;;;-145.18;100.00;46719.00;5032327;28;20627;-74
2022/12/07 04:07:14;;;;;;;10.27;1.63;;;;;;;-145.18;100.00;46717.03;5032861;28;20275;-74
2022/12/07 04:09:39;;;;;;;13.27;1.80;;;;;;;-145.18;100.00;46722.91;5032573;28;20451;-74
2022/12/07 04:12:05;;;;;;;14.97;2.20;;;;;;;-145.18;100.00;46713.13;5032695;28;20037;-74
2022/12/07 04:14:30;;;;;;;9.03;1.40;;;;;;;-145.18;100.00;46715.09;5032416;28;20446;-74
2022/12/07 04:16:58;;;;;;;8.53;1.73;;;;;;;-145.18;100.00;46719.00;5032750;28;20044;-74
2022/12/07 04:19:26;;;;;;;6.57;1.57;;;;;;;-145.18;100.00;46717.03;5014481;28;20033;-74
2022/12/07 04:21:52;;;;;;;11.13;1.60;;;;;;;-145.18;100.00;46720.94;5032426;28;20325;-74
2022/12/07 04:24:18;;;;;;;10.73;1.70;;;;;;;-145.18;100.00;46719.00;5032539;28;20323;-74
2022/12/07 04:26:45;;;;;;;4.93;1.37;;;;;;;-145.18;100.00;46719.00;5031869;28;20037;-74
2022/12/07 04:29:12;;;;;;;11.63;1.30;;;;;;;-145.18;100.00;46720.94;5032279;28;20271;-74
2022/12/07 04:31:37;;;;;;;8.37;1.50;;;;;;;-145.18;100.00;46717.03;5032243;28;20306;-74
2022/12/07 04:34:03;;;;;;;7.47;1.40;;;;;;;-145.18;100.00;46699.47;5014423;28;20318;-74
2022/12/07 04:36:29;;;;;;;11.50;1.63;;;;;;;-145.18;100.00;46715.09;5031966;28;20061;-74
2022/12/07 04:38:55;;;;;;;10.23;1.80;;;;;;;-145.18;100.00;46707.28;5032280;28;20025;-74
2022/12/07 04:41:27;;;;;;;7.87;1.90;;;;;;;-145.18;100.00;46713.13;5032275;28;20042;-74
2022/12/07 04:44:01;;;;;;;10.27;2.27;;;;;;;-145.18;100.00;46713.13;5031980;28;20033;-74
2022/12/07 04:46:28;;;;;;;10.33;1.90;;;;;;;-145.18;100.00;46717.03;5031739;28;20324;-74
2022/12/07 04:48:54;;;;;;;8.10;2.70;;;;;;;-145.18;100.00;46707.28;5031853;28;20302;-74
2022/12/07 04:51:22;;;;;;;4.53;2.00;;;;;;;-145.18;100.00;46717.03;4998005;28;20783;-75
2022/12/07 04:53:48;;;;;;;8.77;2.63;;;;;;;-145.18;100.00;46701.41;5011497;28;20790;-74
2022/12/07 04:56:15;;;;;;;12.83;2.57;;;;;;;-145.18;100.00;46707.28;5012354;28;20276;-74
2022/12/07 04:58:41;;;;;;;6.73;2.13;;;;;;;-145.18;100.00;46715.09;5011913;28;20504;-74
2022/12/07 05:01:07;;;;;;;9.30;2.27;;;;;;;-145.18;100.00;46707.28;5012209;28;20349;-74
2022/12/07 05:03:32;;;;;;;8.40;2.50;;;;;;;-145.18;100.00;46709.22;5011235;28;20326;-74
2022/12/07 05:05:57;;;;;;;9.93;2.10;;;;;;;-145.18;100.00;46711.19;5012225;28;20049;-74
2022/12/07 05:08:23;;;;;;;8.07;2.00;;;;;;;-145.18;100.00;46717.03;5011618;28;20045;-74
2022/12/07 05:10:49;;;;;;;8.43;2.80;;;;;;;-145.18;100.00;46715.09;4994309;28;20038;-74
2022/12/07 05:13:14;;;;;;;9.93;2.60;;;;;;;-145.18;100.00;46717.03;5011586;28;20196;-75
2022/12/07 05:15:40;;;;;;;7.87;2.80;;;;;;;-145.18;100.00;46719.00;5011661;28;20370;-74
2022/12/07 05:18:05;;;;;;;11.93;2.53;;;;;;;-145.18;100.00;46717.03;5011679;28;20042;-74
2022/12/07 05:20:31;;;;;;;9.43;2.40;;;;;;;-145.18;100.00;46711.19;5011538;28;20038;-74
2022/12/07 05:22:58;;;;;;;6.13;2.10;;;;;;;-145.18;100.00;46713.13;5011591;28;20034;-74
2022/12/07 05:25:24;;;;;;;7.87;2.73;;;;;;;-145.18;100.00;46705.31;5011495;28;20030;-74
2022/12/07 05:27:49;;;;;;;9.87;2.40;;;;;;;-145.18;100.00;46703.38;5011496;28;20644;-73
2022/12/07 05:30:15;;;;;;;4.03;2.00;;;;;;;-145.18;100.00;46707.28;5011415;28;20152;-74
2022/12/07 05:32:40;;;;;;;6.60;1.30;;;;;;;-145.18;100.00;46711.19;4994021;28;20048;-74
2022/12/07 05:35:07;;;;;;;7.50;1.40;;;;;;;-145.18;100.00;46701.41;5011438;28;20411;-74
2022/12/07 05:37:32;;;;;;;10.43;1.10;;;;;;;-145.18;100.00;46703.38;5011330;28;20318;-74
2022/12/07 05:39:58;;;;;;;13.00;1.20;;;;;;;-145.18;100.00;46715.09;5010152;28;20495;-74
2022/12/07 05:42:23;;;;;;;7.77;0.93;;;;;;;-145.18;100.00;46717.03;5022512;28;20080;-74
2022/12/07 05:44:49;;;;;;;10.30;1.30;;;;;;;-145.18;100.00;46717.03;5030769;28;20088;-74
2022/12/07 05:47:15;;;;;;;12.57;1.30;;;;;;;-145.18;100.00;46713.13;5031076;28;20032;-74
2022/12/07 05:49:40;;;;;;;6.00;1.30;;;;;;;-145.18;100.00;46711.19;5030369;28;20038;-74
2022/12/07 05:52:06;;;;;;;9.07;1.37;;;;;;;-145.18;100.00;46715.09;5030970;28;20829;-74
2022/12/07 05:54:32;;;;;;;9.50;1.17;;;;;;;-145.18;100.00;46715.09;5030518;28;20049;-74
2022/12/07 05:56:57;;;;;;;9.73;1.00;;;;;;;-145.18;100.00;46720.94;5030693;28;20030;-74
2022/12/07 05:59:23;;;;;;;7.70;1.47;;;;;;;-145.18;100.00;46720.94;5030726;28;20087;-75
2022/12/07 06:02:16;;;;;;;11.87;1.33;;;;;;;-145.18;100.00;46719.00;5012417;28;20033;-74
2022/12/07 06:04:44;;;;;;;8.97;1.13;;;;;;;-145.18;100.00;46719.00;5026609;28;20144;-74
2022/12/07 06:07:11;;;;;;;8.63;0.97;;;;;;;-145.18;100.00;46722.91;5013137;28;20663;-74
2022/12/07 06:09:37;;;;;;;7.80;1.50;;;;;;;-145.18;100.00;46722.91;5012499;28;20685;-74
2022/12/07 06:14:47;;;;;;;6.53;1.27;;;;;;;-145.18;100.00;46726.81;5030047;28;20064;-75
2022/12/07 06:17:13;;;;;;;7.63;0.93;;;;;;;-145.18;100.00;46720.94;5030719;28;20303;-74
2022/12/07 06:19:39;;;;;;;8.13;1.17;;;;;;;-145.18;100.00;46726.81;5012434;28;20632;-74
2022/12/07 06:22:05;;;;;;;5.93;1.10;;;;;;;-145.18;100.00;46726.81;5030257;28;20259;-75
2022/12/07 06:24:31;;;;;;;6.73;0.97;;;;;;;-145.18;100.00;46724.84;5019777;28;20486;-74
2022/12/07 06:26:57;;;;;;;8.30;1.27;;;;;;;-145.18;100.00;46724.84;5019393;28;20276;-75
2022/12/07 06:29:23;;;;;;;14.30;1.77;;;;;;;-145.18;100.00;46720.94;5002266;28;20278;-75
2022/12/07 06:31:48;;;;;;;4.77;1.23;;;;;;;-145.18;100.00;46726.81;5029392;28;20484;-74
2022/12/07 06:34:16;;;;;;;12.40;1.07;;;;;;;-145.18;100.00;46724.84;5030231;28;20037;-74
2022/12/07 06:36:42;;;;;;;12.67;1.30;;;;;;;-145.18;100.00;46724.84;5030190;28;20393;-74
2022/12/07 06:39:08;;;;;;;7.23;1.93;;;;;;;-145.18;100.00;46720.94;5027007;28;20267;-74
2022/12/07 06:41:38;;;;;;;9.77;1.27;;;;;;;-145.18;100.00;46724.84;5013333;28;20366;-74
2022/12/07 06:44:05;;;;;;;12.67;1.50;;;;;;;-145.18;100.00;46726.81;5010480;28;20279;-74
2022/12/07 06:46:31;;;;;;;12.10;2.03;;;;;;;-145.18;100.00;46720.94;5010493;28;20272;-74
2022/12/07 06:48:57;;;;;;;8.47;1.27;;;;;;;-145.18;100.00;46720.94;5010557;28;20263;-74
2022/12/07 06:51:22;;;;;;;10.07;1.73;;;;;;;-145.18;100.00;46720.94;5013239;28;20037;-74
2022/12/07 06:53:47;;;;;;;12.73;1.67;;;;;;;-145.18;100.00;46722.91;5014024;28;20034;-75
2022/12/07 06:56:13;;;;;;;7.87;2.50;;;;;;;-145.18;100.00;46722.91;4997004;28;20448;-74
2022/12/07 06:58:39;;;;;;;8.47;1.80;;;;;;;-145.18;100.00;46722.91;5014155;28;20112;-75
2022/12/07 07:01:15;;;;;;;18.80;2.00;;;;;;;-145.18;100.00;46722.91;5014437;28;20046;-75
2022/12/07 07:03:40;;;;;;;14.43;2.00;;;;;;;-145.18;100.00;46726.81;5013795;28;20283;-75
2022/12/07 07:06:07;;;;;;;10.83;2.13;;;;;;;-145.18;100.00;46726.81;5014422;28;20029;-74
2022/12/07 07:08:33;;;;;;;7.87;1.93;;;;;;;-145.18;100.00;46728.75;5013665;28;20482;-75
2022/12/07 07:10:58;;;;;;;9.63;1.53;;;;;;;-145.18;100.00;46732.66;5021000;28;20635;-75
2022/12/07 07:13:24;;;;;;;13.87;1.87;;;;;;;-145.18;100.00;46722.91;5033663;28;20298;-74
2022/12/07 07:15:49;;;;;;;5.70;1.27;;;;;;;-145.18;100.00;46720.94;5033721;28;20037;-74
2022/12/07 07:18:15;;;;;;;7.23;1.27;;;;;;;-145.18;100.00;46724.84;5033876;28;20026;-74
2022/12/07 07:20:40;;;;;;;6.50;1.60;;;;;;;-145.18;100.00;46724.84;5033609;28;20360;-74
2022/12/07 07:23:07;;;;;;;13.73;2.30;;;;;;;-145.18;100.00;46724.84;5033651;28;20034;-74
2022/12/07 07:25:32;;;;;;;8.50;1.97;;;;;;;-145.18;100.00;46724.84;5033332;28;20489;-74
2022/12/07 07:27:58;;;;;;;6.10;1.60;;;;;;;-145.18;100.00;46728.75;5033742;28;20273;-74
2022/12/07 07:30:24;;;;;;;8.63;2.10;;;;;;;-145.18;100.00;46722.91;5033188;28;20033;-74
2022/12/07 07:32:49;;;;;;;4.83;1.80;;;;;;;-145.18;100.00;46722.91;5033335;28;20037;-75
2022/12/07 07:35:15;;;;;;;6.20;1.57;;;;;;;-145.18;100.00;46724.84;5033346;28;20026;-74
2022/12/07 07:37:41;;;;;;;5.70;1.23;;;;;;;-145.18;100.00;46722.91;5033467;28;20036;-74
2022/12/07 07:40:08;;;;;;;9.33;1.87;;;;;;;-145.18;100.00;46722.91;5033020;28;20116;-74
2022/12/07 07:42:33;;;;;;;11.87;1.93;;;;;;;-145.18;100.00;46722.91;5033142;28;20029;-74
2022/12/07 07:44:58;;;;;;;9.97;2.23;;;;;;;-145.18;100.00;46724.84;5001213;28;20756;-74
2022/12/07 07:47:24;;;;;;;11.07;2.07;;;;;;;-145.18;100.00;46719.00;5028731;28;20064;-74
2022/12/07 07:49:49;;;;;;;8.43;3.40;;;;;;;-145.18;100.00;46717.03;5032791;28;20049;-74
2022/12/07 07:52:14;;;;;;;14.90;2.67;;;;;;;-145.18;100.00;46722.91;5015220;28;20489;-74
2022/12/07 07:54:40;;;;;;;13.00;2.60;;;;;;;-145.18;100.00;46719.00;5032337;28;20073;-74
2022/12/07 07:57:05;;;;;;;11.53;2.83;;;;;;;-145.18;100.00;46720.94;5033049;28;20038;-74
2022/12/07 07:59:30;;;;;;;11.83;3.13;;;;;;;-145.18;100.00;46719.00;5032597;28;20442;-74
2022/12/07 08:01:56;;;;;;;12.70;4.27;;;;;;;-145.18;100.00;46719.00;5031802;28;20033;-74
2022/12/07 08:04:21;;;;;;;14.60;2.43;;;;;;;-145.18;100.00;46719.00;5032333;28;20054;-74
2022/12/07 08:06:47;;;;;;;9.50;2.97;;;;;;;-145.18;100.00;46722.91;5032670;28;20033;-74
2022/12/07 08:09:12;;;;;;;11.50;3.07;;;;;;;-145.18;100.00;46717.03;5032835;28;20029;-74
2022/12/07 08:11:37;;;;;;;12.93;2.63;;;;;;;-145.18;100.00;46719.00;5014583;28;20078;-74
2022/12/07 08:14:03;;;;;;;9.23;2.30;;;;;;;-145.18;100.00;46720.94;5014705;28;20037;-74
2022/12/07 08:16:28;;;;;;;9.50;2.53;;;;;;;-145.18;100.00;46719.00;5032479;28;20033;-74
2022/12/07 08:18:53;;;;;;;12.77;3.00;;;;;;;-145.18;100.00;46722.91;5014606;28;20029;-74
2022/12/07 08:21:19;;;;;;;15.63;3.07;;;;;;;-145.18;100.00;46717.03;4998938;28;20026;-74
2022/12/07 08:23:44;;;;;;;14.90;3.63;;;;;;;-145.18;100.00;46719.00;5012639;28;20526;-74
2022/12/07 08:26:13;;;;;;;9.50;4.03;;;;;;;-145.18;100.00;46717.03;5012765;28;20057;-74
2022/12/07 08:28:39;;;;;;;10.63;4.10;;;;;;;-145.18;100.00;46719.00;5020255;28;20064;-74
2022/12/07 08:31:22;;;;;;;17.83;3.37;;;;;;;-145.18;100.00;46717.03;5027674;28;20925;-74
2022/12/07 08:33:48;;;;;;;11.63;3.90;;;;;;;-145.18;100.00;46722.91;5031883;28;20033;-74
2022/12/07 08:36:14;;;;;;;12.50;3.83;;;;;;;-145.18;100.00;46717.03;5032857;28;20338;-74
2022/12/07 08:38:41;;;;;;;13.80;3.90;;;;;;;-145.18;100.00;46715.09;5013188;28;20349;-74
2022/12/07 08:41:07;;;;;;;14.50;3.10;;;;;;;-145.18;100.00;46717.03;5030490;28;20030;-74
2022/12/07 08:43:33;;;;;;;8.30;3.30;;;;;;;-145.18;100.00;46711.19;5030048;28;20317;-75
2022/12/07 08:46:07;;;;;;;15.60;3.43;;;;;;;-145.18;100.00;46709.22;5032018;28;20271;-74
2022/12/07 08:48:37;;;;;;;14.80;3.03;;;;;;;-145.18;100.00;46707.28;5031769;28;20979;-74
2022/12/07 08:51:02;;;;;;;16.10;3.70;;;;;;;-145.18;100.00;46705.31;5032000;28;20262;-74
2022/12/07 08:53:29;;;;;;;17.30;4.13;;;;;;;-145.18;100.00;46701.41;4997513;28;20290;-74
2022/12/07 08:55:57;;;;;;;10.83;4.20;;;;;;;-145.18;100.00;46703.38;5013982;28;20094;-74
2022/12/07 08:58:23;;;;;;;9.87;2.83;;;;;;;-145.18;100.00;46701.41;5031289;28;20772;-74
2022/12/07 09:00:48;;;;;;;10.67;3.67;;;;;;;-145.18;100.00;46699.47;5031780;28;20309;-74
2022/12/07 09:03:13;;;;;;;11.80;2.47;;;;;;;-145.18;100.00;46705.31;5031103;28;20505;-75
2022/12/07 09:05:39;;;;;;;12.13;2.47;;;;;;;-145.18;100.00;46705.31;5031577;28;20048;-74
2022/12/07 09:08:06;;;;;;;13.90;3.57;;;;;;;-145.18;100.00;46699.47;5013800;28;20040;-74
2022/12/07 09:10:31;;;;;;;10.90;2.87;;;;;;;-145.18;100.00;46699.47;5031071;28;20091;-74
2022/12/07 09:13:00;;;;;;;10.30;3.13;;;;;;;-145.18;100.00;46705.31;5031523;28;20282;-74
2022/12/07 09:15:27;;;;;;;17.20;4.53;;;;;;;-145.18;100.00;46701.41;5025101;28;20034;-74
2022/12/07 09:17:52;;;;;;;11.57;2.90;;;;;;;-145.18;100.00;46701.41;5011874;28;20278;-74
2022/12/07 09:20:18;;;;;;;12.63;3.17;;;;;;;-145.18;100.00;46701.41;5024874;28;20271;-74
2022/12/07 09:22:43;;;;;;;11.20;3.10;;;;;;;-145.18;100.00;46697.50;4993860;28;20033;-74
2022/12/07 09:25:08;;;;;;;7.73;3.53;;;;;;;-145.18;100.00;46695.56;5021511;28;20039;-74
2022/12/07 09:27:34;;;;;;;12.37;3.50;;;;;;;-145.18;100.00;46701.41;5031109;28;20117;-74
2022/12/07 09:29:59;;;;;;;13.63;3.60;;;;;;;-145.18;100.00;46695.56;5022189;28;20026;-75
2022/12/07 09:32:24;;;;;;;15.03;4.23;;;;;;;-145.18;100.00;46697.50;4993759;28;20171;-75
2022/12/07 09:34:50;;;;;;;14.77;3.37;;;;;;;-145.18;100.00;46695.56;5011066;28;20089;-75
2022/12/07 09:37:15;;;;;;;28.47;5.13;;;;;;;-145.18;100.00;46697.50;4993615;28;20395;-75
2022/12/07 09:39:41;;;;;;;11.87;4.70;;;;;;;-145.18;100.00;46699.47;4993280;28;20038;-75
2022/12/07 09:42:07;;;;;;;12.20;4.40;;;;;;;-145.18;100.00;46701.41;5010996;28;20034;-75
2022/12/07 09:44:34;;;;;;;11.87;4.10;;;;;;;-145.18;100.00;46697.50;5010747;28;20124;-75
2022/12/07 09:47:02;;;;;;;16.40;4.87;;;;;;;-145.18;100.00;46699.47;5011181;28;20267;-75
2022/12/07 09:49:32;;;;;;;12.33;3.67;;;;;;;-145.18;100.00;46697.50;5010821;28;20307;-75
2022/12/07 09:52:25;;;;;;;10.80;4.10;;;;;;;-145.18;100.00;46699.47;5011192;28;20287;-75
2022/12/07 09:54:51;;;;;;;12.57;4.13;;;;;;;-145.18;100.00;46699.47;5010573;28;20328;-75
2022/12/07 09:57:21;;;;;;;17.60;5.67;;;;;;;-145.18;100.00;46701.41;5011116;28;20267;-75
2022/12/07 09:59:46;;;;;;;32.87;5.30;;;;;;;-145.18;100.00;46701.41;5010565;28;20267;-75
2022/12/07 10:02:34;;;;;;;12.93;4.17;;;;;;;-145.18;100.00;46697.50;5010676;28;20616;-75
2022/12/07 10:04:59;;;;;;;14.67;3.10;;;;;;;-145.18;100.00;46699.47;5010727;28;20042;-75
2022/12/07 10:07:25;;;;;;;15.07;3.53;;;;;;;-145.18;100.00;46703.38;5010885;28;20633;-76
2022/12/07 10:09:50;;;;;;;10.03;3.57;;;;;;;-145.18;100.00;46705.31;5010432;28;20462;-75
2022/12/07 10:12:16;;;;;;;15.60;3.30;;;;;;;-145.18;100.00;46703.38;5010516;28;20069;-75
2022/12/07 10:15:03;;;;;;;8.23;3.40;;;;;;;-145.18;100.00;46705.31;5010371;28;20537;-76
2022/12/07 10:17:35;;;;;;;8.70;3.63;;;;;;;-145.18;100.00;46707.28;5010923;28;20032;-75
2022/12/07 10:20:27;;;;;;;10.17;3.30;;;;;;;-145.18;100.00;46707.28;4997726;28;20651;-75
2022/12/07 10:23:05;;;;;;;14.07;3.70;;;;;;;-145.18;100.00;46705.31;5030183;28;20616;-75
2022/12/07 10:25:34;;;;;;;9.07;2.97;;;;;;;-145.18;100.00;46705.31;5029366;28;20259;-75
2022/12/07 10:28:08;;;;;;;12.13;3.33;;;;;;;-145.18;100.00;46703.38;5030448;28;20759;-75
2022/12/07 10:30:51;;;;;;;18.77;4.00;;;;;;;-145.18;100.00;46707.28;5019860;28;20747;-75
2022/12/07 10:33:35;;;;;;;17.60;3.37;;;;;;;-145.18;100.00;46707.28;5010721;28;20917;-75
2022/12/07 10:36:17;;;;;;;12.27;2.70;;;;;;;-145.18;100.00;46707.28;5010401;28;20350;-75
2022/12/07 10:38:48;;;;;;;12.67;3.43;;;;;;;-145.18;100.00;46709.22;5010524;28;20291;-75
2022/12/07 10:41:13;;;;;;;11.47;3.30;;;;;;;-145.18;100.00;46709.22;5010244;28;20325;-75
2022/12/07 10:43:48;;;;;;;9.93;3.27;;;;;;;-145.18;100.00;46705.31;5010313;28;20271;-75
2022/12/07 10:46:32;;;;;;;12.70;3.70;;;;;;;-145.18;100.00;46703.38;5010360;28;20057;-75
2022/12/07 10:49:34;;;;;;;11.00;3.43;;;;;;;-145.18;100.00;46707.28;5010197;28;20768;-75
2022/12/07 10:52:30;;;;;;;14.57;4.67;;;;;;;-145.18;100.00;46707.28;5010469;28;20266;-75
2022/12/07 10:55:04;;;;;;;14.17;3.77;;;;;;;-145.18;100.00;46709.22;5013441;28;20259;-75
2022/12/07 10:58:16;;;;;;;10.80;2.90;;;;;;;-145.18;100.00;46711.19;5029868;28;20618;-75
2022/12/07 11:01:02;;;;;;;15.00;3.33;;;;;;;-145.18;100.00;46711.19;4944316;29;20353;-75
2022/12/07 11:03:46;;;;;;;7.35;3.00;;;;;;;-145.18;100.00;46707.28;5025314;28;20276;-76
2022/12/07 11:06:20;;;;;;;9.77;3.30;;;;;;;-145.18;100.00;46707.28;5022996;28;20592;-75
2022/12/07 11:09:14;;;;;;;10.00;3.23;;;;;;;-145.18;100.00;46707.28;5011576;28;20279;-75
2022/12/07 11:11:49;;;;;;;14.03;3.10;;;;;;;-145.18;100.00;46709.22;5020369;28;20273;-75
2022/12/07 11:14:40;;;;;;;12.87;2.50;;;;;;;-145.18;100.00;46707.28;5023584;28;20296;-75
2022/12/07 11:17:28;;;;;;;9.07;2.23;;;;;;;-145.18;100.00;46705.31;5030117;28;20274;-75
2022/12/07 11:20:12;;;;;;;7.57;1.70;;;;;;;-145.18;100.00;46689.69;5029618;28;20356;-75
2022/12/07 11:22:51;;;;;;;8.43;1.87;;;;;;;-145.18;100.00;46685.78;5027072;28;20296;-75